createdAt,value
2024-01-06T00:00:28.684Z,2.50
2024-01-06T00:01:28.701Z,2.60
2024-01-06T00:02:28.647Z,2.70
2024-01-06T00:03:28.744Z,2.30
2024-01-06T00:04:28.701Z,2.50
2024-01-06T00:05:28.652Z,2.50
2024-01-06T00:06:28.629Z,3.00
2024-01-06T00:07:28.603Z,2.10
2024-01-06T00:08:28.593Z,2.40
2024-01-06T00:09:28.574Z,2.40
2024-01-06T00:10:28.549Z,2.50
2024-01-06T00:11:28.532Z,2.30
2024-01-06T00:12:28.558Z,2.30
2024-01-06T00:13:28.514Z,2.20
2024-01-06T00:14:28.490Z,2.10
2024-01-06T00:15:28.544Z,2.40
2024-01-06T00:16:29.720Z,2.20
2024-01-06T00:17:28.461Z,2.30
2024-01-06T00:18:28.594Z,2.30
2024-01-06T00:19:28.499Z,2.30
2024-01-06T00:20:28.411Z,2.40
2024-01-06T00:21:28.436Z,2.40
2024-01-06T00:22:28.428Z,2.50
2024-01-06T00:23:28.403Z,2.30
2024-01-06T00:24:28.396Z,2.40
2024-01-06T00:25:28.388Z,2.30
2024-01-06T00:26:28.381Z,2.10
2024-01-06T00:27:28.391Z,2.60
2024-01-06T00:28:28.299Z,2.30
2024-01-06T00:29:28.289Z,2.20
2024-01-06T00:30:28.402Z,2.00
2024-01-06T00:31:28.487Z,2.50
2024-01-06T00:32:28.284Z,2.10
2024-01-06T00:33:28.363Z,2.70
2024-01-06T00:34:28.407Z,2.20
2024-01-06T00:35:28.263Z,2.30
2024-01-06T00:36:28.313Z,2.10
2024-01-06T00:37:28.184Z,2.10
2024-01-06T00:38:28.168Z,2.10
2024-01-06T00:39:28.189Z,2.20
2024-01-06T00:40:28.157Z,2.40
2024-01-06T00:41:28.150Z,2.20
2024-01-06T00:42:28.153Z,2.60
2024-01-06T00:43:28.101Z,2.30
2024-01-06T00:44:28.099Z,2.40
2024-01-06T00:45:28.134Z,2.20
2024-01-06T00:46:28.087Z,2.40
2024-01-06T00:47:28.085Z,2.60
2024-01-06T00:48:28.111Z,2.20
2024-01-06T00:49:28.089Z,2.20
2024-01-06T00:50:28.018Z,2.70
2024-01-06T00:51:28.039Z,2.20
2024-01-06T00:52:27.984Z,2.10
2024-01-06T00:53:27.976Z,2.40
2024-01-06T00:54:27.996Z,2.60
2024-01-06T00:55:27.968Z,2.40
2024-01-06T00:56:27.952Z,2.50
2024-01-06T00:57:27.927Z,2.10
2024-01-06T00:58:27.907Z,2.20
2024-01-06T00:59:27.899Z,2.60
2024-01-06T01:00:27.931Z,2.30
2024-01-06T01:01:27.911Z,2.20
2024-01-06T01:02:27.849Z,2.20
2024-01-06T01:03:27.937Z,2.30
2024-01-06T01:04:27.933Z,2.30
2024-01-06T01:05:27.914Z,2.10
2024-01-06T01:06:27.837Z,2.40
2024-01-06T01:07:27.803Z,2.20
2024-01-06T01:08:27.786Z,2.40
2024-01-06T01:09:27.828Z,2.60
2024-01-06T01:10:27.773Z,2.50
2024-01-06T01:11:27.752Z,2.40
2024-01-06T01:12:27.742Z,2.50
2024-01-06T01:13:27.742Z,2.40
2024-01-06T01:14:27.729Z,2.20
2024-01-06T01:15:27.732Z,2.10
2024-01-06T01:16:27.681Z,2.30
2024-01-06T01:17:27.665Z,2.30
2024-01-06T01:18:27.903Z,2.30
2024-01-06T01:19:27.920Z,2.60
2024-01-06T01:20:27.630Z,2.20
2024-01-06T01:21:27.657Z,2.50
2024-01-06T01:22:27.605Z,2.20
2024-01-06T01:23:27.653Z,2.30
2024-01-06T01:24:27.643Z,2.30
2024-01-06T01:25:27.557Z,2.00
2024-01-06T01:26:27.551Z,2.40
2024-01-06T01:27:27.583Z,2.40
2024-01-06T01:28:27.529Z,2.40
2024-01-06T01:29:27.515Z,2.20
2024-01-06T01:30:27.592Z,2.10
2024-01-06T01:31:27.748Z,2.40
2024-01-06T01:32:27.624Z,2.30
2024-01-06T01:33:27.653Z,2.20
2024-01-06T01:34:27.702Z,2.30
2024-01-06T01:35:27.475Z,2.40
2024-01-06T01:36:27.562Z,2.20
2024-01-06T01:37:27.412Z,2.30
2024-01-06T01:38:27.428Z,2.20
2024-01-06T01:39:27.479Z,2.30
2024-01-06T01:40:27.363Z,2.20
2024-01-06T01:41:27.349Z,2.30
2024-01-06T01:42:27.382Z,2.10
2024-01-06T01:43:27.388Z,2.40
2024-01-06T01:44:27.312Z,2.40
2024-01-06T01:45:27.407Z,2.40
2024-01-06T01:46:27.280Z,2.60
2024-01-06T01:47:27.308Z,2.30
2024-01-06T01:48:27.671Z,2.20
2024-01-06T01:49:27.580Z,2.40
2024-01-06T01:50:27.237Z,2.30
2024-01-06T01:51:27.279Z,2.20
2024-01-06T01:52:27.226Z,2.30
2024-01-06T01:53:27.242Z,2.50
2024-01-06T01:54:27.211Z,2.50
2024-01-06T01:55:27.170Z,2.30
2024-01-06T01:56:27.154Z,2.50
2024-01-06T01:57:27.247Z,2.10
2024-01-06T01:58:27.136Z,2.00
2024-01-06T01:59:27.136Z,2.20
2024-01-06T02:00:27.934Z,2.30
2024-01-06T02:01:27.152Z,2.30
2024-01-06T02:02:27.110Z,2.20
2024-01-06T02:03:27.241Z,2.30
2024-01-06T02:04:27.091Z,2.00
2024-01-06T02:05:27.105Z,2.40
2024-01-06T02:06:27.073Z,2.10
2024-01-06T02:07:27.060Z,2.10
2024-01-06T02:08:26.998Z,2.00
2024-01-06T02:09:27.014Z,2.30
2024-01-06T02:10:26.983Z,2.10
2024-01-06T02:11:26.990Z,2.20
2024-01-06T02:12:26.962Z,2.40
2024-01-06T02:13:26.950Z,2.70
2024-01-06T02:14:26.940Z,2.50
2024-01-06T02:15:26.918Z,2.30
2024-01-06T02:16:26.911Z,2.10
2024-01-06T02:17:26.961Z,2.50
2024-01-06T02:18:26.977Z,2.30
2024-01-06T02:19:26.893Z,2.40
2024-01-06T02:20:26.868Z,2.30
2024-01-06T02:21:26.871Z,2.40
2024-01-06T02:22:26.813Z,2.40
2024-01-06T02:23:26.837Z,2.50
2024-01-06T02:24:26.855Z,2.60
2024-01-06T02:25:26.783Z,2.40
2024-01-06T02:26:26.780Z,2.40
2024-01-06T02:27:26.818Z,2.40
2024-01-06T02:28:26.746Z,2.70
2024-01-06T02:29:26.731Z,2.60
2024-01-06T02:30:26.890Z,2.60
2024-01-06T02:31:26.746Z,2.30
2024-01-06T02:32:26.741Z,2.20
2024-01-06T02:33:26.864Z,2.10
2024-01-06T02:34:26.717Z,2.70
2024-01-06T02:35:26.658Z,2.80
2024-01-06T02:36:26.652Z,2.30
2024-01-06T02:37:26.624Z,2.40
2024-01-06T02:38:26.611Z,2.20
2024-01-06T02:39:26.668Z,2.20
2024-01-06T02:40:26.594Z,2.40
2024-01-06T02:41:26.572Z,2.60
2024-01-06T02:42:26.697Z,12.10
2024-01-06T02:43:26.541Z,22.80
2024-01-06T02:44:26.545Z,12.80
2024-01-06T02:45:26.548Z,4.30
2024-01-06T02:46:26.506Z,4.80
2024-01-06T02:47:26.488Z,3.50
2024-01-06T02:48:26.582Z,2.20
2024-01-06T02:49:26.542Z,2.20
2024-01-06T02:50:26.489Z,2.30
2024-01-06T02:51:26.463Z,2.00
2024-01-06T02:52:26.436Z,2.70
2024-01-06T02:53:26.414Z,3.60
2024-01-06T02:54:26.443Z,2.60
2024-01-06T02:55:26.418Z,2.70
2024-01-06T02:56:26.377Z,3.40
2024-01-06T02:57:26.394Z,5.10
2024-01-06T02:58:26.351Z,3.50
2024-01-06T02:59:26.357Z,2.30
2024-01-06T03:00:26.334Z,2.50
2024-01-06T03:01:26.419Z,3.50
2024-01-06T03:02:26.294Z,2.30
2024-01-06T03:03:26.406Z,3.40
2024-01-06T03:04:26.331Z,2.60
2024-01-06T03:05:26.298Z,2.00
2024-01-06T03:06:26.289Z,2.70
2024-01-06T03:07:26.231Z,2.30
2024-01-06T03:08:26.232Z,2.30
2024-01-06T03:09:26.264Z,2.60
2024-01-06T03:10:26.199Z,2.50
2024-01-06T03:11:26.217Z,2.60
2024-01-06T03:12:26.185Z,2.30
2024-01-06T03:13:26.167Z,2.30
2024-01-06T03:14:26.178Z,2.30
2024-01-06T03:15:26.130Z,2.80
2024-01-06T03:16:26.112Z,2.50
2024-01-06T03:17:26.202Z,2.40
2024-01-06T03:18:26.383Z,2.70
2024-01-06T03:19:26.107Z,2.80
2024-01-06T03:20:26.056Z,2.70
2024-01-06T03:21:26.052Z,2.40
2024-01-06T03:22:26.029Z,3.70
2024-01-06T03:23:26.051Z,3.50
2024-01-06T03:24:26.045Z,4.70
2024-01-06T03:25:26.000Z,4.20
2024-01-06T03:26:25.999Z,4.10
2024-01-06T03:27:26.074Z,4.60
2024-01-06T03:28:25.973Z,4.40
2024-01-06T03:29:25.954Z,3.50
2024-01-06T03:30:26.079Z,3.70
2024-01-06T03:31:26.026Z,3.30
2024-01-06T03:32:26.019Z,2.90
2024-01-06T03:33:26.039Z,2.20
2024-01-06T03:34:25.979Z,2.40
2024-01-06T03:35:25.866Z,2.30
2024-01-06T03:36:25.911Z,2.30
2024-01-06T03:37:25.894Z,2.30
2024-01-06T03:38:25.832Z,2.00
2024-01-06T03:39:25.867Z,2.40
2024-01-06T03:40:25.810Z,3.20
2024-01-06T03:41:25.791Z,2.50
2024-01-06T03:42:25.818Z,2.30
2024-01-06T03:43:25.786Z,2.00
2024-01-06T03:44:25.758Z,2.40
2024-01-06T03:45:25.765Z,2.20
2024-01-06T03:46:25.726Z,2.20
2024-01-06T03:47:25.765Z,2.30
2024-01-06T03:48:25.958Z,2.20
2024-01-06T03:49:25.918Z,2.70
2024-01-06T03:50:25.682Z,2.20
2024-01-06T03:51:25.736Z,2.50
2024-01-06T03:52:25.788Z,2.30
2024-01-06T03:53:27.186Z,2.30
2024-01-06T03:54:25.666Z,2.50
2024-01-06T03:55:25.618Z,2.30
2024-01-06T03:56:25.645Z,2.50
2024-01-06T03:57:25.685Z,2.70
2024-01-06T03:58:25.576Z,2.20
2024-01-06T03:59:25.575Z,2.40
2024-01-06T04:00:25.598Z,2.20
2024-01-06T04:01:25.679Z,2.70
2024-01-06T04:02:25.513Z,2.40
2024-01-06T04:03:25.567Z,2.20
2024-01-06T04:04:25.533Z,2.40
2024-01-06T04:05:25.518Z,2.40
2024-01-06T04:06:25.523Z,2.60
2024-01-06T04:07:25.459Z,2.40
2024-01-06T04:08:25.432Z,3.10
2024-01-06T04:09:25.453Z,2.50
2024-01-06T04:10:25.427Z,2.10
2024-01-06T04:11:25.414Z,2.30
2024-01-06T04:12:25.401Z,2.50
2024-01-06T04:13:25.369Z,2.20
2024-01-06T04:14:25.369Z,2.40
2024-01-06T04:15:25.402Z,2.30
2024-01-06T04:16:25.350Z,2.60
2024-01-06T04:17:25.354Z,2.50
2024-01-06T04:18:25.546Z,2.30
2024-01-06T04:19:25.413Z,2.50
2024-01-06T04:20:25.307Z,2.40
2024-01-06T04:21:25.355Z,2.40
2024-01-06T04:22:25.244Z,2.40
2024-01-06T04:23:26.329Z,2.50
2024-01-06T04:24:25.274Z,2.70
2024-01-06T04:25:25.229Z,2.60
2024-01-06T04:26:25.202Z,2.50
2024-01-06T04:27:25.243Z,2.30
2024-01-06T04:28:25.175Z,2.40
2024-01-06T04:29:25.157Z,2.50
2024-01-06T04:30:25.211Z,2.30
2024-01-06T04:31:25.251Z,2.50
2024-01-06T04:32:25.295Z,2.70
2024-01-06T04:33:25.223Z,2.60
2024-01-06T04:34:25.121Z,2.30
2024-01-06T04:35:25.089Z,3.00
2024-01-06T04:36:25.094Z,2.40
2024-01-06T04:37:25.054Z,2.40
2024-01-06T04:38:25.051Z,2.30
2024-01-06T04:39:25.147Z,2.80
2024-01-06T04:40:25.032Z,2.10
2024-01-06T04:41:24.995Z,2.50
2024-01-06T04:42:25.017Z,2.80
2024-01-06T04:43:24.974Z,2.50
2024-01-06T04:44:24.963Z,2.30
2024-01-06T04:45:25.035Z,2.30
2024-01-06T04:46:24.930Z,2.70
2024-01-06T04:47:25.024Z,2.20
2024-01-06T04:48:25.048Z,2.40
2024-01-06T04:49:24.968Z,2.40
2024-01-06T04:50:24.890Z,2.20
2024-01-06T04:51:24.890Z,2.50
2024-01-06T04:52:24.848Z,2.50
2024-01-06T04:53:24.843Z,2.30
2024-01-06T04:54:24.877Z,2.60
2024-01-06T04:55:24.808Z,2.40
2024-01-06T04:56:24.797Z,2.60
2024-01-06T04:57:24.805Z,2.20
2024-01-06T04:58:24.769Z,2.50
2024-01-06T04:59:24.835Z,2.60
2024-01-06T05:00:24.779Z,2.10
2024-01-06T05:01:24.771Z,2.20
2024-01-06T05:02:24.715Z,2.30
2024-01-06T05:03:24.803Z,2.40
2024-01-06T05:04:24.799Z,2.40
2024-01-06T05:05:24.710Z,2.40
2024-01-06T05:06:24.730Z,2.20
2024-01-06T05:07:24.651Z,2.20
2024-01-06T05:08:24.653Z,2.20
2024-01-06T05:09:24.667Z,2.40
2024-01-06T05:10:24.609Z,2.30
2024-01-06T05:11:24.596Z,2.50
2024-01-06T05:12:24.635Z,2.60
2024-01-06T05:13:24.590Z,2.30
2024-01-06T05:14:24.595Z,2.30
2024-01-06T05:15:24.570Z,2.80
2024-01-06T05:16:24.534Z,2.30
2024-01-06T05:17:24.557Z,2.30
2024-01-06T05:18:24.617Z,2.20
2024-01-06T05:19:24.688Z,2.30
2024-01-06T05:20:24.483Z,2.40
2024-01-06T05:21:24.499Z,2.50
2024-01-06T05:22:24.479Z,2.40
2024-01-06T05:23:24.484Z,2.50
2024-01-06T05:24:24.465Z,2.60
2024-01-06T05:25:24.415Z,2.50
2024-01-06T05:26:24.402Z,2.30
2024-01-06T05:27:24.430Z,2.70
2024-01-06T05:28:24.379Z,2.40
2024-01-06T05:29:24.358Z,2.40
2024-01-06T05:30:24.442Z,2.80
2024-01-06T05:31:24.409Z,2.50
2024-01-06T05:32:24.350Z,2.40
2024-01-06T05:33:24.484Z,2.50
2024-01-06T05:34:24.459Z,2.40
2024-01-06T05:35:24.339Z,2.40
2024-01-06T05:36:24.323Z,2.60
2024-01-06T05:37:24.271Z,2.20
2024-01-06T05:38:24.242Z,2.70
2024-01-06T05:39:24.256Z,2.30
2024-01-06T05:40:24.219Z,2.40
2024-01-06T05:41:24.227Z,2.70
2024-01-06T05:42:24.232Z,2.50
2024-01-06T05:43:24.198Z,2.50
2024-01-06T05:44:24.182Z,2.40
2024-01-06T05:45:25.288Z,2.40
2024-01-06T05:46:24.216Z,2.50
2024-01-06T05:47:24.140Z,2.70
2024-01-06T05:48:24.275Z,2.70
2024-01-06T05:49:24.184Z,2.80
2024-01-06T05:50:24.089Z,2.30
2024-01-06T05:51:24.183Z,2.30
2024-01-06T05:52:24.076Z,2.20
2024-01-06T05:53:24.087Z,2.50
2024-01-06T05:54:24.081Z,2.50
2024-01-06T05:55:24.079Z,2.40
2024-01-06T05:56:24.032Z,2.10
2024-01-06T05:57:24.016Z,2.50
2024-01-06T05:58:23.998Z,2.40
2024-01-06T05:59:23.986Z,2.40
2024-01-06T06:00:24.024Z,2.60
2024-01-06T06:01:24.499Z,2.40
2024-01-06T06:02:23.967Z,2.20
2024-01-06T06:03:24.056Z,2.50
2024-01-06T06:04:24.026Z,2.60
2024-01-06T06:05:23.929Z,2.40
2024-01-06T06:06:23.941Z,2.70
2024-01-06T06:07:23.887Z,2.30
2024-01-06T06:08:23.856Z,2.40
2024-01-06T06:09:23.876Z,2.40
2024-01-06T06:10:23.890Z,2.30
2024-01-06T06:11:23.812Z,2.20
2024-01-06T06:12:23.824Z,2.70
2024-01-06T06:13:23.783Z,2.40
2024-01-06T06:14:26.490Z,2.60
2024-01-06T06:15:23.788Z,2.40
2024-01-06T06:16:23.748Z,2.60
2024-01-06T06:17:23.770Z,2.50
2024-01-06T06:18:23.905Z,2.40
2024-01-06T06:19:23.882Z,2.30
2024-01-06T06:20:23.717Z,2.70
2024-01-06T06:21:23.692Z,2.30
2024-01-06T06:22:23.671Z,2.40
2024-01-06T06:23:23.674Z,2.30
2024-01-06T06:24:23.704Z,2.50
2024-01-06T06:25:23.627Z,2.60
2024-01-06T06:26:23.617Z,2.80
2024-01-06T06:27:23.647Z,2.90
2024-01-06T06:28:23.669Z,2.40
2024-01-06T06:29:23.639Z,2.80
2024-01-06T06:30:23.750Z,2.80
2024-01-06T06:31:23.733Z,2.80
2024-01-06T06:32:23.667Z,2.50
2024-01-06T06:33:23.656Z,2.60
2024-01-06T06:34:23.721Z,2.70
2024-01-06T06:35:23.560Z,2.80
2024-01-06T06:36:23.530Z,2.60
2024-01-06T06:37:23.482Z,2.70
2024-01-06T06:38:23.481Z,2.80
2024-01-06T06:39:23.515Z,2.60
2024-01-06T06:40:23.447Z,2.60
2024-01-06T06:41:23.418Z,2.30
2024-01-06T06:42:23.452Z,2.90
2024-01-06T06:43:23.421Z,2.40
2024-01-06T06:44:23.383Z,2.40
2024-01-06T06:45:23.394Z,2.70
2024-01-06T06:46:23.369Z,2.70
2024-01-06T06:47:23.340Z,2.50
2024-01-06T06:48:23.539Z,3.10
2024-01-06T06:49:23.343Z,2.70
2024-01-06T06:50:23.307Z,3.10
2024-01-06T06:51:23.331Z,2.60
2024-01-06T06:52:23.289Z,2.50
2024-01-06T06:53:23.281Z,2.80
2024-01-06T06:54:23.294Z,3.00
2024-01-06T06:55:23.256Z,2.70
2024-01-06T06:56:23.230Z,2.60
2024-01-06T06:57:23.259Z,2.80
2024-01-06T06:58:23.219Z,2.60
2024-01-06T06:59:23.187Z,2.60
2024-01-06T07:00:23.244Z,2.60
2024-01-06T07:01:23.204Z,2.90
2024-01-06T07:02:23.154Z,2.70
2024-01-06T07:03:23.171Z,2.60
2024-01-06T07:04:23.106Z,2.90
2024-01-06T07:05:23.118Z,2.30
2024-01-06T07:06:23.133Z,2.80
2024-01-06T07:07:23.117Z,2.70
2024-01-06T07:08:23.069Z,2.60
2024-01-06T07:09:23.726Z,2.80
2024-01-06T07:10:23.046Z,3.00
2024-01-06T07:11:23.063Z,2.80
2024-01-06T07:12:23.059Z,3.00
2024-01-06T07:13:23.048Z,2.90
2024-01-06T07:14:22.978Z,2.60
2024-01-06T07:15:23.097Z,3.10
2024-01-06T07:16:23.084Z,3.00
2024-01-06T07:17:22.958Z,2.70
2024-01-06T07:18:23.063Z,2.90
2024-01-06T07:19:23.018Z,3.20
2024-01-06T07:20:22.899Z,2.70
2024-01-06T07:21:22.932Z,2.80
2024-01-06T07:22:22.874Z,2.90
2024-01-06T07:23:22.854Z,3.00
2024-01-06T07:24:22.902Z,2.70
2024-01-06T07:25:22.837Z,2.80
2024-01-06T07:26:22.838Z,2.80
2024-01-06T07:27:22.851Z,2.80
2024-01-06T07:28:22.862Z,2.90
2024-01-06T07:29:22.788Z,3.00
2024-01-06T07:30:22.994Z,3.10
2024-01-06T07:31:22.881Z,2.90
2024-01-06T07:32:22.805Z,3.00
2024-01-06T07:33:22.792Z,2.80
2024-01-06T07:34:22.821Z,3.30
2024-01-06T07:35:22.713Z,3.00
2024-01-06T07:36:22.741Z,3.10
2024-01-06T07:37:22.673Z,3.20
2024-01-06T07:38:22.675Z,3.00
2024-01-06T07:39:22.689Z,3.20
2024-01-06T07:40:22.669Z,3.20
2024-01-06T07:41:22.708Z,3.10
2024-01-06T07:42:22.919Z,3.20
2024-01-06T07:43:22.611Z,3.10
2024-01-06T07:44:22.594Z,3.00
2024-01-06T07:45:22.628Z,2.90
2024-01-06T07:46:22.556Z,3.20
2024-01-06T07:47:22.532Z,3.40
2024-01-06T07:48:22.781Z,2.90
2024-01-06T07:49:22.916Z,3.30
2024-01-06T07:50:22.497Z,3.00
2024-01-06T07:51:22.497Z,3.20
2024-01-06T07:52:22.471Z,3.50
2024-01-06T07:53:22.457Z,2.90
2024-01-06T07:54:22.501Z,3.10
2024-01-06T07:55:22.428Z,3.10
2024-01-06T07:56:22.418Z,3.60
2024-01-06T07:57:22.431Z,4.40
2024-01-06T07:58:22.405Z,3.10
2024-01-06T07:59:22.427Z,3.30
2024-01-06T08:00:22.471Z,3.40
2024-01-06T08:01:22.438Z,2.90
2024-01-06T08:02:22.442Z,3.30
2024-01-06T08:03:22.441Z,3.30
2024-01-06T08:04:22.387Z,4.40
2024-01-06T08:05:22.411Z,3.90
2024-01-06T08:06:22.340Z,3.90
2024-01-06T08:07:22.305Z,3.90
2024-01-06T08:08:22.281Z,4.20
2024-01-06T08:09:22.277Z,4.50
2024-01-06T08:10:22.239Z,4.50
2024-01-06T08:11:22.233Z,4.30
2024-01-06T08:12:22.282Z,4.20
2024-01-06T08:13:22.372Z,4.10
2024-01-06T08:14:22.208Z,3.90
2024-01-06T08:15:22.205Z,3.20
2024-01-06T08:16:22.160Z,3.70
2024-01-06T08:17:22.199Z,3.60
2024-01-06T08:18:22.709Z,3.20
2024-01-06T08:19:22.236Z,3.50
2024-01-06T08:20:22.102Z,3.20
2024-01-06T08:21:22.102Z,3.00
2024-01-06T08:22:22.081Z,3.40
2024-01-06T08:23:22.081Z,3.00
2024-01-06T08:24:22.070Z,3.40
2024-01-06T08:25:22.045Z,3.00
2024-01-06T08:26:22.028Z,3.20
2024-01-06T08:27:22.037Z,2.80
2024-01-06T08:28:22.022Z,3.10
2024-01-06T08:29:21.987Z,2.80
2024-01-06T08:30:22.069Z,2.90
2024-01-06T08:31:22.037Z,3.10
2024-01-06T08:32:21.978Z,3.00
2024-01-06T08:33:22.022Z,3.00
2024-01-06T08:34:22.124Z,3.10
2024-01-06T08:35:21.923Z,3.10
2024-01-06T08:36:21.908Z,2.70
2024-01-06T08:37:21.955Z,2.90
2024-01-06T08:38:21.876Z,3.20
2024-01-06T08:39:21.888Z,3.00
2024-01-06T08:40:21.846Z,3.10
2024-01-06T08:41:21.845Z,3.00
2024-01-06T08:42:21.866Z,3.40
2024-01-06T08:43:21.810Z,3.20
2024-01-06T08:44:21.800Z,3.00
2024-01-06T08:45:21.822Z,3.20
2024-01-06T08:46:21.794Z,3.20
2024-01-06T08:47:21.797Z,3.30
2024-01-06T08:48:21.971Z,3.50
2024-01-06T08:49:21.825Z,3.20
2024-01-06T08:50:21.733Z,3.30
2024-01-06T08:51:21.880Z,3.20
2024-01-06T08:52:21.691Z,3.00
2024-01-06T08:53:21.680Z,3.00
2024-01-06T08:54:21.730Z,3.00
2024-01-06T08:55:21.650Z,3.20
2024-01-06T08:56:21.663Z,3.60
2024-01-06T08:57:21.632Z,3.20
2024-01-06T08:58:21.609Z,3.20
2024-01-06T08:59:21.594Z,2.90
2024-01-06T09:00:21.639Z,3.30
2024-01-06T09:01:21.641Z,3.10
2024-01-06T09:02:21.558Z,3.40
2024-01-06T09:03:21.668Z,3.40
2024-01-06T09:04:21.590Z,3.00
2024-01-06T09:05:21.584Z,3.40
2024-01-06T09:06:21.540Z,3.20
2024-01-06T09:07:21.500Z,3.60
2024-01-06T09:08:21.516Z,3.60
2024-01-06T09:09:21.542Z,3.50
2024-01-06T09:10:21.498Z,3.50
2024-01-06T09:11:21.456Z,3.50
2024-01-06T09:12:21.496Z,3.50
2024-01-06T09:13:21.413Z,3.20
2024-01-06T09:14:21.415Z,3.40
2024-01-06T09:15:21.526Z,3.80
2024-01-06T09:16:21.386Z,3.50
2024-01-06T09:17:21.462Z,3.40
2024-01-06T09:18:21.573Z,3.30
2024-01-06T09:19:21.763Z,3.80
2024-01-06T09:20:21.335Z,3.40
2024-01-06T09:21:21.340Z,3.50
2024-01-06T09:22:21.298Z,3.20
2024-01-06T09:23:24.316Z,3.50
2024-01-06T09:24:21.296Z,3.60
2024-01-06T09:25:21.264Z,3.40
2024-01-06T09:26:21.245Z,3.30
2024-01-06T09:27:21.267Z,3.50
2024-01-06T09:28:21.225Z,3.80
2024-01-06T09:29:21.219Z,3.80
2024-01-06T09:30:21.317Z,3.60
2024-01-06T09:31:21.251Z,3.30
2024-01-06T09:32:21.166Z,3.50
2024-01-06T09:33:21.406Z,3.30
2024-01-06T09:34:21.273Z,3.50
2024-01-06T09:35:21.196Z,3.30
2024-01-06T09:36:21.213Z,3.60
2024-01-06T09:37:21.187Z,3.80
2024-01-06T09:38:21.097Z,3.50
2024-01-06T09:39:21.136Z,3.50
2024-01-06T09:40:21.067Z,3.50
2024-01-06T09:41:21.075Z,3.50
2024-01-06T09:42:21.078Z,3.60
2024-01-06T09:43:21.044Z,3.80
2024-01-06T09:44:21.030Z,3.70
2024-01-06T09:45:21.019Z,3.70
2024-01-06T09:46:20.992Z,3.90
2024-01-06T09:47:20.966Z,3.80
2024-01-06T09:48:21.126Z,3.50
2024-01-06T09:49:21.061Z,3.60
2024-01-06T09:50:20.929Z,3.80
2024-01-06T09:51:21.618Z,3.60
2024-01-06T09:52:20.919Z,3.70
2024-01-06T09:53:20.955Z,4.20
2024-01-06T09:54:20.917Z,3.90
2024-01-06T09:55:20.884Z,3.50
2024-01-06T09:56:20.846Z,3.70
2024-01-06T09:57:20.887Z,3.80
2024-01-06T09:58:20.875Z,4.00
2024-01-06T09:59:20.811Z,4.20
2024-01-06T10:00:20.832Z,3.90
2024-01-06T10:01:20.892Z,4.20
2024-01-06T10:02:20.789Z,4.10
2024-01-06T10:03:20.795Z,3.80
2024-01-06T10:04:23.728Z,3.80
2024-01-06T10:05:20.828Z,3.80
2024-01-06T10:06:20.800Z,3.70
2024-01-06T10:07:20.756Z,4.10
2024-01-06T10:08:20.694Z,3.70
2024-01-06T10:09:20.707Z,4.30
2024-01-06T10:10:20.666Z,3.70
2024-01-06T10:11:20.661Z,3.90
2024-01-06T10:12:20.684Z,3.90
2024-01-06T10:13:20.722Z,4.40
2024-01-06T10:14:20.655Z,4.00
2024-01-06T10:15:20.655Z,3.90
2024-01-06T10:16:20.788Z,4.10
2024-01-06T10:17:20.604Z,4.10
2024-01-06T10:18:20.716Z,4.60
2024-01-06T10:19:20.696Z,4.20
2024-01-06T10:20:20.556Z,4.20
2024-01-06T10:21:20.593Z,4.30
2024-01-06T10:22:20.510Z,4.00
2024-01-06T10:23:20.519Z,4.40
2024-01-06T10:24:20.527Z,4.10
2024-01-06T10:25:20.488Z,4.20
2024-01-06T10:26:20.467Z,4.00
2024-01-06T10:27:20.466Z,4.20
2024-01-06T10:28:20.428Z,4.20
2024-01-06T10:29:20.426Z,4.40
2024-01-06T10:30:20.547Z,4.00
2024-01-06T10:31:20.689Z,4.20
2024-01-06T10:32:20.373Z,4.20
2024-01-06T10:33:20.421Z,4.10
2024-01-06T10:34:20.446Z,4.20
2024-01-06T10:35:20.383Z,4.50
2024-01-06T10:36:20.415Z,4.30
2024-01-06T10:37:20.314Z,4.00
2024-01-06T10:38:20.302Z,4.40
2024-01-06T10:39:20.360Z,4.20
2024-01-06T10:40:20.397Z,4.50
2024-01-06T10:41:20.262Z,4.30
2024-01-06T10:42:20.320Z,4.60
2024-01-06T10:43:20.296Z,4.30
2024-01-06T10:44:20.219Z,4.50
2024-01-06T10:45:20.288Z,4.30
2024-01-06T10:46:20.212Z,4.50
2024-01-06T10:47:20.179Z,4.20
2024-01-06T10:48:20.324Z,4.50
2024-01-06T10:49:20.292Z,4.70
2024-01-06T10:50:20.165Z,4.80
2024-01-06T10:51:20.248Z,5.30
2024-01-06T10:52:20.226Z,4.70
2024-01-06T10:53:20.118Z,4.60
2024-01-06T10:54:20.233Z,5.00
2024-01-06T10:55:20.114Z,4.60
2024-01-06T10:56:20.088Z,4.80
2024-01-06T10:57:20.063Z,4.30
2024-01-06T10:58:20.073Z,5.00
2024-01-06T10:59:20.063Z,4.60
2024-01-06T11:00:20.050Z,4.30
2024-01-06T11:01:21.401Z,4.50
2024-01-06T11:02:20.008Z,5.00
2024-01-06T11:03:20.129Z,4.80
2024-01-06T11:04:20.122Z,4.70
2024-01-06T11:05:20.020Z,4.90
2024-01-06T11:06:19.985Z,4.40
2024-01-06T11:07:19.914Z,5.00
2024-01-06T11:08:19.913Z,5.30
2024-01-06T11:09:19.949Z,4.70
2024-01-06T11:10:19.891Z,4.40
2024-01-06T11:11:19.937Z,4.80
2024-01-06T11:12:19.922Z,4.90
2024-01-06T11:13:19.850Z,4.50
2024-01-06T11:14:19.816Z,5.00
2024-01-06T11:15:19.847Z,4.70
2024-01-06T11:16:19.821Z,4.80
2024-01-06T11:17:19.801Z,4.80
2024-01-06T11:18:19.933Z,5.20
2024-01-06T11:19:19.921Z,4.80
2024-01-06T11:20:19.790Z,5.40
2024-01-06T11:21:19.752Z,5.10
2024-01-06T11:22:19.768Z,5.10
2024-01-06T11:23:19.752Z,5.00
2024-01-06T11:24:19.749Z,5.20
2024-01-06T11:25:19.690Z,5.00
2024-01-06T11:26:19.678Z,4.90
2024-01-06T11:27:19.721Z,4.70
2024-01-06T11:28:19.652Z,4.90
2024-01-06T11:29:19.629Z,4.80
2024-01-06T11:30:19.691Z,4.90
2024-01-06T11:31:19.661Z,4.80
2024-01-06T11:32:19.625Z,4.90
2024-01-06T11:33:19.681Z,5.00
2024-01-06T11:34:19.665Z,5.40
2024-01-06T11:35:19.554Z,5.00
2024-01-06T11:36:19.638Z,5.10
2024-01-06T11:37:19.559Z,6.00
2024-01-06T11:38:19.502Z,5.00
2024-01-06T11:39:19.546Z,4.90
2024-01-06T11:40:19.490Z,5.00
2024-01-06T11:41:19.469Z,5.00
2024-01-06T11:42:19.489Z,5.20
2024-01-06T11:43:19.475Z,5.50
2024-01-06T11:44:19.430Z,4.90
2024-01-06T11:45:19.434Z,5.30
2024-01-06T11:46:19.414Z,5.70
2024-01-06T11:47:19.430Z,5.00
2024-01-06T11:48:21.068Z,5.10
2024-01-06T11:49:19.466Z,5.00
2024-01-06T11:50:19.375Z,4.90
2024-01-06T11:51:19.387Z,4.80
2024-01-06T11:52:19.474Z,5.30
2024-01-06T11:53:19.306Z,5.00
2024-01-06T11:54:20.468Z,4.80
2024-01-06T11:55:19.311Z,5.00
2024-01-06T11:56:19.301Z,5.10
2024-01-06T11:57:19.334Z,5.50
2024-01-06T11:58:19.241Z,4.90
2024-01-06T11:59:19.254Z,4.70
2024-01-06T12:00:19.404Z,4.80
2024-01-06T12:01:19.248Z,5.10
2024-01-06T12:02:19.210Z,5.60
2024-01-06T12:03:19.258Z,9.30
2024-01-06T12:04:19.239Z,8.30
2024-01-06T12:05:19.714Z,5.60
2024-01-06T12:06:19.183Z,4.90
2024-01-06T12:07:19.284Z,6.00
2024-01-06T12:08:19.122Z,5.70
2024-01-06T12:09:19.126Z,5.20
2024-01-06T12:10:19.088Z,5.30
2024-01-06T12:11:19.110Z,5.00
2024-01-06T12:12:19.141Z,5.00
2024-01-06T12:13:19.115Z,4.90
2024-01-06T12:14:19.064Z,5.20
2024-01-06T12:15:19.046Z,5.20
2024-01-06T12:16:19.029Z,5.00
2024-01-06T12:17:19.008Z,4.90
2024-01-06T12:18:19.137Z,4.80
2024-01-06T12:19:19.052Z,5.00
2024-01-06T12:20:19.266Z,4.80
2024-01-06T12:21:19.004Z,4.90
2024-01-06T12:22:18.968Z,5.00
2024-01-06T12:23:18.952Z,5.20
2024-01-06T12:24:18.974Z,5.30
2024-01-06T12:25:18.920Z,5.40
2024-01-06T12:26:18.902Z,5.20
2024-01-06T12:27:18.974Z,5.50
2024-01-06T12:28:18.864Z,5.30
2024-01-06T12:29:18.840Z,5.00
2024-01-06T12:30:19.023Z,5.10
2024-01-06T12:31:18.943Z,5.10
2024-01-06T12:32:18.802Z,4.70
2024-01-06T12:33:19.075Z,5.10
2024-01-06T12:34:18.804Z,5.10
2024-01-06T12:35:18.797Z,5.30
2024-01-06T12:36:24.678Z,5.50
2024-01-06T12:37:18.773Z,6.90
2024-01-06T12:38:18.723Z,6.30
2024-01-06T12:39:18.755Z,6.10
2024-01-06T12:40:19.051Z,6.20
2024-01-06T12:41:18.723Z,6.40
2024-01-06T12:42:18.711Z,6.00
2024-01-06T12:43:18.663Z,5.90
2024-01-06T12:44:18.646Z,5.60
2024-01-06T12:45:18.788Z,5.20
2024-01-06T12:46:18.616Z,7.10
2024-01-06T12:47:18.650Z,8.70
2024-01-06T12:48:18.717Z,8.60
2024-01-06T12:49:18.666Z,7.10
2024-01-06T12:50:18.601Z,14.40
2024-01-06T12:51:18.581Z,6.70
2024-01-06T12:52:18.553Z,6.70
2024-01-06T12:53:18.591Z,7.40
2024-01-06T12:54:18.607Z,7.50
2024-01-06T12:55:18.661Z,5.60
2024-01-06T12:56:18.506Z,5.00
2024-01-06T12:57:18.507Z,6.90
2024-01-06T12:58:18.456Z,6.20
2024-01-06T12:59:18.468Z,5.30
2024-01-06T13:00:18.473Z,4.90
2024-01-06T13:01:18.488Z,5.40
2024-01-06T13:02:18.412Z,5.80
2024-01-06T13:03:18.494Z,5.10
2024-01-06T13:04:18.577Z,5.20
2024-01-06T13:05:18.430Z,5.80
2024-01-06T13:06:18.396Z,5.00
2024-01-06T13:07:18.370Z,5.20
2024-01-06T13:08:18.326Z,5.30
2024-01-06T13:09:18.456Z,5.10
2024-01-06T13:10:18.307Z,4.90
2024-01-06T13:11:18.285Z,5.40
2024-01-06T13:12:18.326Z,5.20
2024-01-06T13:13:18.275Z,6.60
2024-01-06T13:14:18.260Z,5.70
2024-01-06T13:15:18.417Z,6.00
2024-01-06T13:16:18.349Z,5.50
2024-01-06T13:17:18.231Z,5.70
2024-01-06T13:18:18.342Z,5.20